Time;durP1;ratioP1;P1;durP2;ratioP2;P2;SDS_P1;SDS_P2;PMS_P1;PMS_P2;Temp;Humidity;BMP_temperature;BMP_pressure;BME280_temperature;BME280_humidity;BME280_pressure;Samples;Min_cycle;Max_cycle;Signal;HPM_P1;HPM_P2
2022/08/26 00:03:45;;;;;;;;;;;;;;;23.19;77.88;100626.09;12874638;23;19945;-71
2022/08/26 00:08:49;;;;;;;;;;;;;;;23.12;79.11;100624.75;12862475;23;20269;-73
2022/08/26 00:13:52;;;;;;;;;;;;;;;23.06;79.67;100625.09;12862019;23;20003;-67
2022/08/26 00:18:56;;;;;;;;;;;;;;;22.79;82.08;100633.66;12862726;23;19924;-65
2022/08/26 00:24:01;;;;;;;;;;;;;;;22.77;82.48;100630.25;12864776;23;20262;-67
2022/08/26 00:29:04;;;;;;;;;;;;;;;22.82;82.65;100625.53;12875984;23;19995;-67
2022/08/26 00:34:07;;;;;;;;;;;;;;;22.75;82.99;100624.19;12862234;23;20267;-69
2022/08/26 00:39:13;;;;;;;;;;;;;;;22.62;83.05;100617.00;12862060;23;19951;-66
2022/08/26 00:44:16;;;;;;;;;;;;;;;22.63;83.03;100619.56;12861849;23;20392;-70
2022/08/26 00:49:30;;;;;;;;;;;;;;;22.59;83.39;100628.59;12861208;23;20512;-67
2022/08/26 00:54:39;;;;;;;;;;;;;;;22.49;83.93;100629.16;12874553;23;20003;-70
2022/08/26 00:59:45;;;;;;;;;;;;;;;22.42;84.03;100630.44;12873718;23;19927;-67
2022/08/26 01:04:50;;;;;;;;;;;;;;;22.48;83.67;100633.63;12861497;23;19943;-68
2022/08/26 01:10:00;;;;;;;;;;;;;;;22.41;83.90;100632.25;12873925;23;19924;-66
2022/08/26 01:15:04;;;;;;;;;;;;;;;22.35;84.76;100635.19;12860821;23;19928;-68
2022/08/26 01:20:12;;;;;;;;;;;;;;;22.28;85.08;100630.34;12873792;23;20491;-69
2022/08/26 01:25:18;;;;;;;;;;;;;;;22.21;85.73;100627.16;12874342;23;20003;-66
2022/08/26 01:30:21;;;;;;;;;;;;;;;22.18;86.63;100629.97;12860940;23;20030;-69
2022/08/26 01:35:24;;;;;;;;;;;;;;;22.18;87.06;100629.97;12861086;23;20381;-67
2022/08/26 01:40:31;;;;;;;;;;;;;;;22.18;86.80;100629.09;12860640;23;19951;-74
2022/08/26 01:45:36;;;;;;;;;;;;;;;22.23;86.43;100629.72;12881711;23;19920;-72
2022/08/26 01:50:39;;;;;;;;;;;;;;;22.26;85.87;100622.47;12867882;23;20385;-72
2022/08/26 01:55:46;;;;;;;;;;;;;;;22.22;86.79;100634.16;12867342;23;19994;-71
2022/08/26 02:00:51;;;;;;;;;;;;;;;22.22;87.15;100623.59;12880550;23;20374;-70
2022/08/26 02:05:55;;;;;;;;;;;;;;;22.08;88.10;100628.75;12867700;23;19950;-72
2022/08/26 02:10:59;;;;;;;;;;;;;;;22.10;88.54;100629.53;12866879;23;20006;-72
2022/08/26 02:16:03;;;;;;;;;;;;;;;22.06;88.13;100627.97;12866918;23;19963;-70
2022/08/26 02:21:09;;;;;;;;;;;;;;;22.00;89.20;100630.94;12879901;23;19920;-69
2022/08/26 02:26:15;;;;;;;;;;;;;;;22.00;89.09;100623.03;12866605;23;19954;-70
2022/08/26 02:31:21;;;;;;;;;;;;;;;22.02;88.59;100622.94;12879757;23;19939;-69
2022/08/26 02:36:24;;;;;;;;;;;;;;;21.95;89.83;100622.38;12866593;23;19970;-70
2022/08/26 02:41:31;;;;;;;;;;;;;;;21.93;90.10;100620.78;12879384;23;19955;-69
2022/08/26 02:46:36;;;;;;;;;;;;;;;21.95;89.89;100617.09;12866313;23;19955;-73
2022/08/26 02:51:42;;;;;;;;;;;;;;;21.91;90.58;100623.50;12866152;23;19955;-72
2022/08/26 02:56:46;;;;;;;;;;;;;;;21.89;90.91;100628.00;12866229;23;19954;-71
2022/08/26 03:01:49;;;;;;;;;;;;;;;21.86;91.32;100617.59;12866119;23;19970;-71
2022/08/26 03:06:52;;;;;;;;;;;;;;;21.79;91.96;100621.50;12866047;23;19958;-70
2022/08/26 03:11:58;;;;;;;;;;;;;;;21.78;91.63;100617.97;12865948;23;19944;-73
2022/08/26 03:17:01;;;;;;;;;;;;;;;21.72;91.66;100615.66;12866083;23;19943;-71
2022/08/26 03:22:06;;;;;;;;;;;;;;;21.73;91.22;100611.19;12865601;23;19962;-74
2022/08/26 03:27:10;;;;;;;;;;;;;;;21.66;92.06;100615.06;12865745;23;20279;-70
2022/08/26 03:32:15;;;;;;;;;;;;;;;21.64;91.79;100627.53;12865879;23;19959;-75
2022/08/26 03:37:20;;;;;;;;;;;;;;;21.60;91.44;100623.34;12865757;23;20235;-72
2022/08/26 03:42:24;;;;;;;;;;;;;;;21.61;91.25;100619.75;12865875;23;19952;-75
2022/08/26 03:47:27;;;;;;;;;;;;;;;21.51;92.16;100616.72;12866299;23;19947;-72
2022/08/26 03:52:31;;;;;;;;;;;;;;;21.58;91.23;100611.97;12865740;23;19955;-74
2022/08/26 03:57:35;;;;;;;;;;;;;;;21.56;91.54;100606.78;12865559;23;19991;-73
2022/08/26 04:02:38;;;;;;;;;;;;;;;21.48;92.22;100610.75;12865977;23;19924;-76
2022/08/26 04:07:42;;;;;;;;;;;;;;;21.56;91.81;100603.28;12865931;23;20362;-73
2022/08/26 04:12:47;;;;;;;;;;;;;;;21.59;91.85;100611.03;12866035;23;19994;-71
2022/08/26 04:17:50;;;;;;;;;;;;;;;21.55;92.19;100601.59;12865223;23;19986;-69
2022/08/26 04:22:53;;;;;;;;;;;;;;;21.54;92.53;100605.13;12865825;23;19940;-70
2022/08/26 04:27:57;;;;;;;;;;;;;;;21.62;91.91;100602.97;12865226;23;19996;-71
2022/08/26 04:33:03;;;;;;;;;;;;;;;21.68;90.92;100606.16;12867328;23;19986;-71
2022/08/26 04:38:15;;;;;;;;;;;;;;;21.66;91.09;100610.66;12881644;23;20215;-71
2022/08/26 04:43:19;;;;;;;;;;;;;;;21.70;89.77;100606.94;12868799;23;19940;-73
2022/08/26 04:48:22;;;;;;;;;;;;;;;21.81;88.88;100614.34;12868583;23;19919;-74
2022/08/26 04:53:26;;;;;;;;;;;;;;;21.74;88.34;100608.47;12868758;23;20300;-72
2022/08/26 04:58:30;;;;;;;;;;;;;;;21.79;88.11;100613.56;12868387;23;20014;-73
2022/08/26 05:03:33;;;;;;;;;;;;;;;21.86;87.52;100611.44;12868204;23;20277;-70
2022/08/26 05:08:36;;;;;;;;;;;;;;;21.93;86.68;100608.41;12868372;23;20315;-71
2022/08/26 05:13:41;;;;;;;;;;;;;;;21.96;86.53;100605.59;12868994;23;19978;-72
2022/08/26 05:18:44;;;;;;;;;;;;;;;22.07;87.10;100599.75;12868513;23;20051;-71
2022/08/26 05:23:50;;;;;;;;;;;;;;;22.15;86.77;100608.97;12867763;23;19990;-71
2022/08/26 05:28:55;;;;;;;;;;;;;;;22.23;85.48;100612.06;12872241;23;19924;-72
2022/08/26 05:33:58;;;;;;;;;;;;;;;22.34;85.63;100609.69;12880269;23;19954;-71
2022/08/26 05:39:06;;;;;;;;;;;;;;;22.42;86.05;100615.41;12879667;23;19951;-75
2022/08/26 05:44:11;;;;;;;;;;;;;;;22.51;84.69;100616.69;12864319;23;19943;-73
2022/08/26 05:49:15;;;;;;;;;;;;;;;22.62;82.86;100620.50;12872561;23;19935;-69
2022/08/26 05:54:18;;;;;;;;;;;;;;;22.75;80.40;100620.66;12860804;23;19952;-71
2022/08/26 05:59:25;;;;;;;;;;;;;;;22.87;78.78;100619.97;12872673;23;20216;-70
2022/08/26 06:04:30;;;;;;;;;;;;;;;22.99;77.39;100610.50;12858421;23;19920;-71
2022/08/26 06:09:36;;;;;;;;;;;;;;;23.07;76.83;100605.63;12859489;23;19924;-71
2022/08/26 06:14:41;;;;;;;;;;;;;;;23.15;74.88;100606.88;12860773;23;19950;-75
2022/08/26 06:19:46;;;;;;;;;;;;;;;23.23;73.20;100607.28;12872288;23;20022;-72
2022/08/26 06:30:13;;;;;;;;;;;;;;;23.40;71.93;100609.84;12876576;23;19931;-73
2022/08/26 06:35:17;;;;;;;;;;;;;;;23.50;71.61;100607.50;12877729;23;19974;-74
2022/08/26 06:40:22;;;;;;;;;;;;;;;23.55;71.38;100603.66;12866228;23;19920;-72
2022/08/26 06:45:26;;;;;;;;;;;;;;;23.60;70.63;100608.66;12866061;23;19940;-72
2022/08/26 06:50:30;;;;;;;;;;;;;;;23.65;70.31;100610.09;12865917;23;19998;-73
2022/08/26 06:55:35;;;;;;;;;;;;;;;23.68;70.60;100609.06;12866415;23;19919;-69
2022/08/26 07:00:39;;;;;;;;;;;;;;;23.73;70.85;100612.28;12865861;23;19958;-70
2022/08/26 07:05:49;;;;;;;;;;;;;;;23.79;70.95;100620.75;12865914;23;19978;-68
2022/08/26 07:10:55;;;;;;;;;;;;;;;23.85;70.80;100611.53;12877347;23;19931;-68
2022/08/26 07:16:02;;;;;;;;;;;;;;;23.90;70.49;100612.13;12865743;23;20278;-67
2022/08/26 07:21:08;;;;;;;;;;;;;;;23.97;70.77;100614.31;12876704;23;19995;-69
2022/08/26 07:26:15;;;;;;;;;;;;;;;23.99;71.89;100608.94;12865486;23;19943;-67
2022/08/26 07:31:20;;;;;;;;;;;;;;;24.06;71.84;100602.31;12876678;23;19928;-68
2022/08/26 07:36:23;;;;;;;;;;;;;;;24.13;71.51;100600.97;12865528;23;19978;-68
2022/08/26 07:41:26;;;;;;;;;;;;;;;24.23;71.16;100598.63;12865222;23;20010;-69
2022/08/26 07:46:36;;;;;;;;;;;;;;;24.30;71.20;100595.47;12877148;23;19944;-70
2022/08/26 07:51:39;;;;;;;;;;;;;;;24.38;71.19;100595.88;12865257;23;20310;-69
2022/08/26 07:56:43;;;;;;;;;;;;;;;24.45;71.12;100585.72;12865868;23;19982;-67
2022/08/26 08:01:47;;;;;;;;;;;;;;;24.49;71.00;100596.03;12864954;23;20243;-69
2022/08/26 08:06:50;;;;;;;;;;;;;;;24.56;70.68;100584.06;12867081;23;19986;-68
2022/08/26 08:11:53;;;;;;;;;;;;;;;24.61;70.39;100587.28;12869149;23;20271;-69
2022/08/26 08:16:58;;;;;;;;;;;;;;;24.76;69.95;100582.84;12869206;23;20299;-68
2022/08/26 08:22:03;;;;;;;;;;;;;;;24.80;69.80;100587.84;12868701;23;20004;-67
2022/08/26 08:27:19;;;;;;;;;;;;;;;24.86;69.99;100579.47;12873504;23;19947;-67
2022/08/26 08:32:28;;;;;;;;;;;;;;;24.94;69.96;100579.81;12879674;23;19935;-67
2022/08/26 08:37:31;;;;;;;;;;;;;;;25.09;69.37;100570.00;12879715;23;20300;-77
2022/08/26 08:42:37;;;;;;;;;;;;;;;25.24;68.85;100573.41;12868401;23;19951;-76
2022/08/26 08:47:44;;;;;;;;;;;;;;;25.35;69.36;100569.09;12879959;23;19919;-77
2022/08/26 08:52:50;;;;;;;;;;;;;;;25.56;69.14;100561.50;12879411;23;19987;-76
2022/08/26 08:57:58;;;;;;;;;;;;;;;25.82;68.34;100553.41;12880084;23;20374;-76
2022/08/26 09:03:10;;;;;;;;;;;;;;;26.10;67.78;100547.91;12878582;23;20374;-76
2022/08/26 09:08:16;;;;;;;;;;;;;;;26.32;66.84;100541.88;12878291;23;19943;-75
2022/08/26 09:13:22;;;;;;;;;;;;;;;26.65;65.70;100543.91;12841807;23;19955;-75
2022/08/26 09:18:36;;;;;;;;;;;;;;;26.89;64.26;100542.97;12877744;23;20323;-79
2022/08/26 09:23:40;;;;;;;;;;;;;;;27.05;62.73;100532.88;12877513;23;20291;-77
2022/08/26 09:28:46;;;;;;;;;;;;;;;27.11;62.46;100537.72;12877200;23;19931;-75
2022/08/26 09:34:02;;;;;;;;;;;;;;;27.28;62.08;100526.63;12868307;23;20193;-74
2022/08/26 09:39:10;;;;;;;;;;;;;;;27.56;61.28;100524.56;12876436;23;19991;-75
2022/08/26 09:44:15;;;;;;;;;;;;;;;27.79;60.22;100513.78;12875791;23;19958;-74
2022/08/26 09:49:27;;;;;;;;;;;;;;;28.15;57.94;100516.25;12867182;23;19920;-77
2022/08/26 09:54:35;;;;;;;;;;;;;;;28.66;55.39;100505.84;12875480;23;19939;-72
2022/08/26 09:59:38;;;;;;;;;;;;;;;28.82;54.39;100500.09;12866901;23;19990;-74
2022/08/26 10:04:49;;;;;;;;;;;;;;;28.87;54.28;100503.22;12866984;23;19920;-75
2022/08/26 10:09:52;;;;;;;;;;;;;;;29.00;53.76;100495.84;12874498;23;19947;-77
2022/08/26 10:14:58;;;;;;;;;;;;;;;28.97;53.52;100499.66;12866865;23;20325;-76
2022/08/26 10:20:07;;;;;;;;;;;;;;;29.50;51.19;100490.63;12874422;23;19942;-74
2022/08/26 10:25:27;;;;;;;;;;;;;;;30.24;48.67;100485.88;12866787;23;19943;-72
2022/08/26 10:30:34;;;;;;;;;;;;;;;30.70;48.57;100483.44;12872440;23;19955;-73
2022/08/26 10:35:42;;;;;;;;;;;;;;;30.81;48.17;100485.16;12873880;23;19944;-75
2022/08/26 10:40:51;;;;;;;;;;;;;;;30.96;45.97;100487.25;12872501;23;20010;-75
2022/08/26 10:45:59;;;;;;;;;;;;;;;31.22;46.99;100483.00;12872198;23;19982;-74
2022/08/26 10:51:04;;;;;;;;;;;;;;;31.42;47.01;100473.97;12865425;23;20304;-73
2022/08/26 10:56:16;;;;;;;;;;;;;;;31.67;45.77;100467.94;12866907;23;19920;-75
2022/08/26 11:01:42;;;;;;;;;;;;;;;31.52;45.88;100465.88;12865695;23;19950;-74
2022/08/26 11:06:47;;;;;;;;;;;;;;;31.40;46.76;100461.66;12869905;23;19994;-76
2022/08/26 11:11:50;;;;;;;;;;;;;;;31.13;46.10;100451.66;12865610;23;19947;-75
2022/08/26 11:16:55;;;;;;;;;;;;;;;31.26;45.42;100448.69;12866014;23;20015;-74
2022/08/26 11:22:05;;;;;;;;;;;;;;;31.29;46.23;100440.34;12870561;23;20374;-71
2022/08/26 11:27:31;;;;;;;;;;;;;;;31.62;46.20;100443.38;12870152;23;19943;-74
2022/08/26 11:32:48;;;;;;;;;;;;;;;31.85;45.49;100437.63;12865559;23;19954;-74
2022/08/26 11:37:55;;;;;;;;;;;;;;;32.12;44.45;100429.56;12868073;23;19948;-75
2022/08/26 11:43:00;;;;;;;;;;;;;;;32.42;45.00;100434.63;12870878;23;19924;-75
2022/08/26 11:48:14;;;;;;;;;;;;;;;32.73;44.13;100425.19;12869492;23;19958;-73
2022/08/26 11:53:19;;;;;;;;;;;;;;;33.13;42.38;100417.47;12890546;23;19920;-75
2022/08/26 11:58:26;;;;;;;;;;;;;;;33.39;41.61;100409.38;12890822;23;19951;-72
2022/08/26 12:03:34;;;;;;;;;;;;;;;33.70;40.66;100411.41;12869257;23;19994;-74
2022/08/26 12:08:42;;;;;;;;;;;;;;;34.18;39.60;100404.53;12869283;23;19951;-76
2022/08/26 12:13:53;;;;;;;;;;;;;;;34.36;39.77;100392.59;12889954;23;20315;-73
2022/08/26 12:18:56;;;;;;;;;;;;;;;34.72;39.09;100395.84;12871240;23;19958;-73
2022/08/26 12:24:01;;;;;;;;;;;;;;;34.91;38.94;100384.72;12868789;23;19995;-73
2022/08/26 12:29:05;;;;;;;;;;;;;;;35.08;36.21;100383.72;12870518;23;19947;-73
2022/08/26 12:34:24;;;;;;;;;;;;;;;35.21;36.08;100377.75;12869302;23;19920;-72
2022/08/26 12:39:31;;;;;;;;;;;;;;;35.32;34.65;100370.16;12890454;23;20253;-76
2022/08/26 12:44:45;;;;;;;;;;;;;;;35.40;35.51;100353.09;12889367;23;19924;-75
2022/08/26 12:50:00;;;;;;;;;;;;;;;36.15;34.47;100346.16;12869496;23;19931;-75
2022/08/26 12:55:07;;;;;;;;;;;;;;;37.20;32.53;100333.38;12888009;23;19924;-76
2022/08/26 13:00:22;;;;;;;;;;;;;;;38.52;31.06;100323.91;12868047;23;20273;-75
2022/08/26 13:05:33;;;;;;;;;;;;;;;38.73;30.53;100321.19;12887241;23;19920;-74
2022/08/26 13:10:39;;;;;;;;;;;;;;;38.13;32.29;100324.38;12887306;23;19946;-80
2022/08/26 13:15:43;;;;;;;;;;;;;;;37.81;31.77;100308.56;12887185;23;19935;-74
2022/08/26 13:20:46;;;;;;;;;;;;;;;37.30;32.38;100316.88;12886924;23;19920;-77
2022/08/26 13:25:51;;;;;;;;;;;;;;;36.95;32.51;100316.56;12867140;23;19947;-76
2022/08/26 13:30:54;;;;;;;;;;;;;;;36.68;32.02;100316.31;12887575;23;19998;-74
2022/08/26 13:35:57;;;;;;;;;;;;;;;35.59;33.88;100313.00;12887789;23;19955;-73
2022/08/26 13:41:02;;;;;;;;;;;;;;;34.58;35.14;100321.00;12887523;23;19932;-76
2022/08/26 13:46:05;;;;;;;;;;;;;;;33.63;37.51;100320.66;12886751;23;19982;-75
2022/08/26 13:51:08;;;;;;;;;;;;;;;33.19;38.11;100314.56;12867949;23;19939;-76
2022/08/26 13:56:13;;;;;;;;;;;;;;;33.22;37.72;100306.16;12867089;23;19974;-75
2022/08/26 14:01:17;;;;;;;;;;;;;;;33.12;37.49;100302.75;12887148;23;20006;-73
2022/08/26 14:06:20;;;;;;;;;;;;;;;33.34;38.20;100301.34;12886911;23;20001;-75
2022/08/26 14:11:25;;;;;;;;;;;;;;;33.48;37.69;100303.47;12887205;23;19936;-75
2022/08/26 14:16:32;;;;;;;;;;;;;;;33.48;37.01;100298.88;12887228;23;19991;-75
2022/08/26 14:21:38;;;;;;;;;;;;;;;32.95;37.50;100300.13;12887040;23;20050;-76
2022/08/26 14:26:42;;;;;;;;;;;;;;;32.32;38.47;100303.00;12873334;23;19927;-75
2022/08/26 14:31:45;;;;;;;;;;;;;;;31.89;38.00;100310.13;12888191;23;19944;-75
2022/08/26 14:36:48;;;;;;;;;;;;;;;31.54;38.78;100301.00;12887709;23;19944;-76
2022/08/26 14:41:55;;;;;;;;;;;;;;;31.29;40.90;100293.63;12866090;23;20376;-73
2022/08/26 14:47:00;;;;;;;;;;;;;;;31.14;41.52;100297.78;12886421;23;19954;-72
2022/08/26 14:52:03;;;;;;;;;;;;;;;30.88;40.64;100294.06;12886802;23;19939;-76
2022/08/26 14:57:09;;;;;;;;;;;;;;;30.68;40.74;100295.09;12865400;23;20050;-72
2022/08/26 15:02:13;;;;;;;;;;;;;;;30.54;41.16;100287.50;12887455;23;19966;-75
2022/08/26 15:07:35;;;;;;;;;;;;;;;30.68;42.36;100289.72;12866041;23;19970;-76
2022/08/26 15:12:40;;;;;;;;;;;;;;;30.70;42.32;100295.81;12885479;23;20326;-74
2022/08/26 15:17:43;;;;;;;;;;;;;;;30.63;42.44;100286.66;12885791;23;19951;-74
2022/08/26 15:22:47;;;;;;;;;;;;;;;30.46;42.72;100284.69;12885382;23;19977;-76
2022/08/26 15:27:51;;;;;;;;;;;;;;;30.23;43.09;100280.59;12867915;23;19931;-73
2022/08/26 15:32:54;;;;;;;;;;;;;;;30.08;42.59;100282.03;12885673;23;19951;-75
2022/08/26 15:37:57;;;;;;;;;;;;;;;29.96;42.80;100275.94;12885927;23;19958;-75
2022/08/26 15:43:02;;;;;;;;;;;;;;;29.90;43.65;100267.63;12885799;23;19947;-74
2022/08/26 15:48:25;;;;;;;;;;;;;;;29.85;43.56;100267.22;12865934;23;19987;-74
2022/08/26 15:53:30;;;;;;;;;;;;;;;29.76;43.39;100266.22;12865320;23;19927;-74
2022/08/26 15:58:34;;;;;;;;;;;;;;;29.70;42.51;100266.75;12865484;23;19943;-73
2022/08/26 16:03:38;;;;;;;;;;;;;;;29.63;42.91;100267.44;12865633;23;20013;-74
2022/08/26 16:08:41;;;;;;;;;;;;;;;29.56;43.34;100260.94;12865418;23;19920;-75
2022/08/26 16:13:45;;;;;;;;;;;;;;;29.47;43.08;100267.97;12885035;23;19986;-73
2022/08/26 16:18:49;;;;;;;;;;;;;;;29.28;46.34;100266.09;12884037;23;19990;-70
2022/08/26 16:23:52;;;;;;;;;;;;;;;28.87;49.40;100268.84;12865427;23;19931;-70
2022/08/26 16:28:56;;;;;;;;;;;;;;;28.71;48.92;100267.66;12887709;23;20002;-71
2022/08/26 16:33:59;;;;;;;;;;;;;;;28.52;48.11;100263.03;12889065;23;20050;-71
2022/08/26 16:39:03;;;;;;;;;;;;;;;28.45;47.49;100267.19;12889776;23;19920;-68
2022/08/26 16:44:07;;;;;;;;;;;;;;;28.35;47.43;100261.75;12889785;23;20300;-68
2022/08/26 16:49:11;;;;;;;;;;;;;;;28.28;47.46;100265.09;12889255;23;20331;-69
2022/08/26 16:54:14;;;;;;;;;;;;;;;28.20;47.65;100267.56;12868501;23;19943;-73
2022/08/26 16:59:18;;;;;;;;;;;;;;;28.10;47.75;100280.00;12868276;23;19940;-71
2022/08/26 17:04:21;;;;;;;;;;;;;;;28.02;47.81;100275.31;12868126;23;20050;-71
2022/08/26 17:09:25;;;;;;;;;;;;;;;27.99;47.98;100280.88;12868055;23;19933;-70
2022/08/26 17:14:29;;;;;;;;;;;;;;;27.97;48.13;100277.50;12868123;23;19931;-70
2022/08/26 17:19:32;;;;;;;;;;;;;;;27.99;48.10;100283.53;12868025;23;20341;-69
2022/08/26 17:24:42;;;;;;;;;;;;;;;27.91;48.13;100274.47;12867441;23;20029;-69
2022/08/26 17:29:47;;;;;;;;;;;;;;;27.87;48.01;100281.84;12867742;23;20335;-72
2022/08/26 17:34:50;;;;;;;;;;;;;;;27.88;47.74;100278.25;12842173;23;20327;-71
2022/08/26 17:39:53;;;;;;;;;;;;;;;27.86;47.42;100282.00;12867219;23;20335;-68
2022/08/26 17:44:57;;;;;;;;;;;;;;;27.79;47.95;100288.81;12867413;23;19999;-68
2022/08/26 17:50:01;;;;;;;;;;;;;;;27.69;48.64;100287.88;12867414;23;19920;-69
2022/08/26 17:55:04;;;;;;;;;;;;;;;27.59;48.07;100284.25;12867183;23;19920;-72
2022/08/26 18:00:11;;;;;;;;;;;;;;;27.50;49.18;100282.34;12867174;23;19935;-71
2022/08/26 18:05:16;;;;;;;;;;;;;;;27.41;48.58;100285.75;12867575;23;19931;-68
2022/08/26 18:10:20;;;;;;;;;;;;;;;27.34;48.65;100288.06;12866725;23;19920;-69
2022/08/26 18:15:24;;;;;;;;;;;;;;;27.25;49.83;100292.28;12866748;23;20319;-70
2022/08/26 18:20:28;;;;;;;;;;;;;;;27.15;49.44;100296.66;12866703;23;19939;-70
2022/08/26 18:25:33;;;;;;;;;;;;;;;27.06;49.27;100294.72;12866429;23;19959;-71
2022/08/26 18:30:38;;;;;;;;;;;;;;;26.98;49.59;100293.63;12888060;23;19927;-70
2022/08/26 18:35:42;;;;;;;;;;;;;;;26.92;50.11;100296.78;12866551;23;20300;-70
2022/08/26 18:40:45;;;;;;;;;;;;;;;26.88;50.48;100293.50;12866533;23;19931;-69
2022/08/26 18:45:49;;;;;;;;;;;;;;;26.81;50.65;100299.41;12866429;23;19998;-68
2022/08/26 18:50:52;;;;;;;;;;;;;;;26.75;50.77;100295.41;12866094;23;19944;-70
2022/08/26 18:55:57;;;;;;;;;;;;;;;26.72;50.26;100306.31;12866174;23;19947;-70
2022/08/26 19:01:01;;;;;;;;;;;;;;;26.70;50.53;100294.91;12866120;23;20320;-74
2022/08/26 19:06:05;;;;;;;;;;;;;;;26.66;50.79;100297.91;12865829;23;19955;-76
2022/08/26 19:11:08;;;;;;;;;;;;;;;26.64;50.63;100302.50;12866073;23;19939;-75
2022/08/26 19:16:16;;;;;;;;;;;;;;;26.59;50.69;100297.56;12865980;23;19955;-74
2022/08/26 19:21:20;;;;;;;;;;;;;;;26.56;51.08;100299.59;12887231;23;19951;-75
2022/08/26 19:26:23;;;;;;;;;;;;;;;26.47;51.71;100300.31;12865469;23;19959;-68
2022/08/26 19:31:28;;;;;;;;;;;;;;;26.37;51.90;100297.47;12865875;23;19947;-69
2022/08/26 19:36:31;;;;;;;;;;;;;;;26.30;52.28;100298.06;12866243;23;19924;-69
2022/08/26 19:41:35;;;;;;;;;;;;;;;26.28;51.83;100295.53;12865551;23;20260;-67
2022/08/26 19:46:41;;;;;;;;;;;;;;;26.27;51.63;100303.59;12886733;23;20331;-67
2022/08/26 19:51:44;;;;;;;;;;;;;;;26.15;52.43;100300.94;12865479;23;19947;-69
2022/08/26 19:56:46;;;;;;;;;;;;;;;26.09;52.89;100305.88;12865464;23;19983;-69
2022/08/26 20:01:52;;;;;;;;;;;;;;;26.06;53.33;100314.91;12866337;23;19947;-68
2022/08/26 20:07:04;;;;;;;;;;;;;;;26.00;53.87;100312.69;12871862;23;20243;-68
2022/08/26 20:12:07;;;;;;;;;;;;;;;25.91;54.54;100313.38;12869391;23;19991;-69
2022/08/26 20:17:12;;;;;;;;;;;;;;;25.84;55.01;100316.56;12869396;23;19987;-69
2022/08/26 20:22:15;;;;;;;;;;;;;;;25.76;55.15;100313.63;12869144;23;19995;-69
2022/08/26 20:27:18;;;;;;;;;;;;;;;25.69;56.12;100312.38;12868951;23;19951;-73
2022/08/26 20:32:24;;;;;;;;;;;;;;;25.69;55.65;100315.91;12864388;23;20315;-74
2022/08/26 20:37:28;;;;;;;;;;;;;;;25.65;55.31;100311.75;12862581;23;19947;-72
2022/08/26 20:42:31;;;;;;;;;;;;;;;25.62;55.58;100321.78;12862794;23;20407;-73
2022/08/26 20:47:36;;;;;;;;;;;;;;;25.55;57.33;100329.34;12862642;23;20358;-73
2022/08/26 20:52:39;;;;;;;;;;;;;;;25.49;58.55;100331.59;12861927;23;20223;-76
2022/08/26 20:57:42;;;;;;;;;;;;;;;25.42;59.92;100325.03;12861913;23;19947;-74
2022/08/26 21:02:46;;;;;;;;;;;;;;;25.36;58.72;100331.63;12860943;23;19990;-75
2022/08/26 21:07:50;;;;;;;;;;;;;;;25.26;58.46;100330.56;12861157;23;19958;-67
2022/08/26 21:12:54;;;;;;;;;;;;;;;25.20;58.63;100333.63;12860929;23;19943;-67
2022/08/26 21:18:00;;;;;;;;;;;;;;;25.14;57.91;100326.94;12861017;23;19995;-67
2022/08/26 21:23:03;;;;;;;;;;;;;;;25.09;57.31;100330.91;12860894;23;19931;-67
2022/08/26 21:28:06;;;;;;;;;;;;;;;25.03;58.34;100333.97;12860632;23;19924;-66
2022/08/26 21:33:11;;;;;;;;;;;;;;;25.01;59.13;100330.56;12862608;23;20323;-67
2022/08/26 21:38:14;;;;;;;;;;;;;;;24.96;58.95;100332.69;12862343;23;19952;-68
2022/08/26 21:43:17;;;;;;;;;;;;;;;24.94;59.72;100323.97;12861711;23;19995;-67
2022/08/26 21:48:39;;;;;;;;;;;;;;;24.95;60.48;100325.69;12861663;23;19950;-67
2022/08/26 21:53:42;;;;;;;;;;;;;;;24.88;60.42;100329.72;12865629;23;20330;-69
2022/08/26 21:58:45;;;;;;;;;;;;;;;24.77;60.77;100332.25;12860661;23;20370;-66
2022/08/26 22:03:51;;;;;;;;;;;;;;;24.75;61.75;100329.72;12859961;23;20009;-67
2022/08/26 22:08:54;;;;;;;;;;;;;;;24.75;62.47;100321.75;12860676;23;19947;-69
2022/08/26 22:13:57;;;;;;;;;;;;;;;24.70;62.02;100323.00;12859722;23;20350;-68
2022/08/26 22:19:02;;;;;;;;;;;;;;;24.63;62.22;100325.22;12860207;23;19920;-66
2022/08/26 22:24:07;;;;;;;;;;;;;;;24.55;63.35;100330.22;12859180;23;20027;-67
2022/08/26 22:29:10;;;;;;;;;;;;;;;24.50;64.29;100332.31;12865181;23;19995;-70
2022/08/26 22:34:16;;;;;;;;;;;;;;;24.51;64.22;100331.34;12859437;23;20314;-67
2022/08/26 22:39:20;;;;;;;;;;;;;;;24.42;64.83;100336.44;12866222;23;19951;-67
2022/08/26 22:44:23;;;;;;;;;;;;;;;24.38;65.54;100338.47;12859364;23;19920;-68
2022/08/26 22:49:28;;;;;;;;;;;;;;;24.36;66.67;100337.72;12859708;23;20275;-69
2022/08/26 22:54:31;;;;;;;;;;;;;;;24.31;67.90;100331.84;12859274;23;19951;-67
2022/08/26 22:59:34;;;;;;;;;;;;;;;24.21;68.21;100332.56;12860517;23;19932;-68
2022/08/26 23:04:39;;;;;;;;;;;;;;;24.21;68.01;100328.13;12864006;23;20399;-75
2022/08/26 23:09:42;;;;;;;;;;;;;;;24.22;68.73;100324.50;12865857;23;19924;-73
2022/08/26 23:14:47;;;;;;;;;;;;;;;24.23;69.25;100322.72;12865895;23;19972;-75
2022/08/26 23:19:51;;;;;;;;;;;;;;;24.23;69.72;100326.19;12873013;23;19923;-74
2022/08/26 23:24:55;;;;;;;;;;;;;;;24.21;69.65;100319.31;12865995;23;20004;-75
2022/08/26 23:29:58;;;;;;;;;;;;;;;24.16;71.86;100318.75;12866443;23;20342;-77
2022/08/26 23:35:02;;;;;;;;;;;;;;;24.08;72.68;100321.06;12865792;23;20235;-73
2022/08/26 23:40:08;;;;;;;;;;;;;;;24.03;72.79;100316.06;12869494;23;19954;-76
2022/08/26 23:45:13;;;;;;;;;;;;;;;24.00;73.40;100313.63;12877461;23;19954;-74
2022/08/26 23:50:18;;;;;;;;;;;;;;;23.91;75.34;100300.94;12869848;23;20010;-71
2022/08/26 23:55:22;;;;;;;;;;;;;;;23.91;75.65;100301.78;12869775;23;19954;-70
